Time;durP1;ratioP1;P1;durP2;ratioP2;P2;SDS_P1;SDS_P2;PMS_P1;PMS_P2;Temp;Humidity;BMP_temperature;BMP_pressure;BME280_temperature;BME280_humidity;BME280_pressure;Samples;Min_cycle;Max_cycle;Signal;HPM_P1;HPM_P2
2023/10/20 00:01:51;;;;;;;15.93;12.80;;;;;;;;;;5011843;28;20237;-54
2023/10/20 00:04:17;;;;;;;18.23;15.10;;;;;;;;;;5011899;28;20224;-54
2023/10/20 00:06:44;;;;;;;15.97;12.93;;;;;;;;;;5012029;28;20288;-53
2023/10/20 00:09:14;;;;;;;15.00;12.90;;;;;;;;;;5011944;28;20205;-54
2023/10/20 00:11:40;;;;;;;19.30;13.67;;;;;;;;;;5011761;28;20219;-53
2023/10/20 00:14:06;;;;;;;15.80;13.63;;;;;;;;;;5011660;28;20247;-54
2023/10/20 00:16:33;;;;;;;17.13;13.63;;;;;;;;;;5011828;28;20264;-53
2023/10/20 00:19:01;;;;;;;15.30;13.70;;;;;;;;;;5011511;28;20300;-56
2023/10/20 00:21:27;;;;;;;17.17;11.83;;;;;;;;;;5011752;28;20202;-57
2023/10/20 00:23:53;;;;;;;15.20;13.27;;;;;;;;;;5011843;28;20243;-53
2023/10/20 00:26:19;;;;;;;16.23;12.83;;;;;;;;;;5011723;28;20688;-53
2023/10/20 00:28:45;;;;;;;16.83;13.77;;;;;;;;;;5013659;28;20197;-53
2023/10/20 00:31:11;;;;;;;16.40;13.07;;;;;;;;;;5015328;28;20272;-53
2023/10/20 00:33:37;;;;;;;15.33;12.70;;;;;;;;;;5013768;28;20539;-53
2023/10/20 00:36:05;;;;;;;14.60;12.63;;;;;;;;;;5015303;28;20862;-53
2023/10/20 00:38:31;;;;;;;15.20;12.00;;;;;;;;;;5015446;28;20201;-53
2023/10/20 00:40:57;;;;;;;15.33;12.13;;;;;;;;;;5015189;28;20198;-54
2023/10/20 00:43:34;;;;;;;16.33;11.87;;;;;;;;;;5015049;28;20256;-53
2023/10/20 00:46:00;;;;;;;13.23;11.83;;;;;;;;;;5015307;28;20201;-53
2023/10/20 00:48:26;;;;;;;14.43;12.03;;;;;;;;;;5015236;28;20225;-54
2023/10/20 00:50:52;;;;;;;13.77;12.17;;;;;;;;;;5013311;28;20205;-53
2023/10/20 00:53:22;;;;;;;13.33;10.77;;;;;;;;;;5015095;28;20255;-53
2023/10/20 00:55:48;;;;;;;17.00;12.77;;;;;;;;;;5013431;28;20373;-53
2023/10/20 00:58:14;;;;;;;16.33;12.53;;;;;;;;;;5008143;28;20281;-53
2023/10/20 01:00:40;;;;;;;14.63;12.10;;;;;;;;;;5010186;28;20217;-53
2023/10/20 01:03:07;;;;;;;12.67;11.33;;;;;;;;;;5009666;28;20264;-51
2023/10/20 01:05:33;;;;;;;14.13;12.47;;;;;;;;;;5011739;28;20718;-53
2023/10/20 01:07:59;;;;;;;13.47;11.20;;;;;;;;;;5007786;28;20205;-53
2023/10/20 01:10:26;;;;;;;14.03;12.00;;;;;;;;;;5006323;28;20197;-54
2023/10/20 01:12:52;;;;;;;16.80;13.53;;;;;;;;;;5004559;28;20280;-54
2023/10/20 01:15:18;;;;;;;16.20;13.10;;;;;;;;;;5006300;28;20201;-53
2023/10/20 01:17:44;;;;;;;15.23;12.33;;;;;;;;;;5004429;28;20607;-53
2023/10/20 01:20:11;;;;;;;15.37;12.10;;;;;;;;;;5004416;28;20236;-54
2023/10/20 01:22:37;;;;;;;13.90;12.17;;;;;;;;;;5006031;28;20198;-53
2023/10/20 01:25:05;;;;;;;13.63;10.63;;;;;;;;;;5006145;28;20577;-54
2023/10/20 01:27:31;;;;;;;13.40;11.63;;;;;;;;;;5002695;28;20193;-53
2023/10/20 01:29:57;;;;;;;15.17;12.23;;;;;;;;;;5004270;28;20194;-53
2023/10/20 01:32:23;;;;;;;14.10;11.30;;;;;;;;;;5007542;28;20223;-54
2023/10/20 01:34:49;;;;;;;13.50;11.00;;;;;;;;;;5002512;28;20193;-54
2023/10/20 01:37:15;;;;;;;15.17;12.23;;;;;;;;;;5004105;28;20564;-52
2023/10/20 01:39:41;;;;;;;15.10;11.50;;;;;;;;;;5003326;28;20268;-52
2023/10/20 01:42:09;;;;;;;13.97;11.43;;;;;;;;;;5005322;28;20320;-53
2023/10/20 01:44:35;;;;;;;14.63;12.00;;;;;;;;;;5002382;28;20217;-52
2023/10/20 01:47:01;;;;;;;14.53;12.50;;;;;;;;;;5002268;28;20193;-52
2023/10/20 01:49:27;;;;;;;14.90;11.97;;;;;;;;;;5002378;28;20194;-53
2023/10/20 01:51:53;;;;;;;15.27;12.37;;;;;;;;;;5002083;28;20550;-53
2023/10/20 01:54:19;;;;;;;14.30;11.83;;;;;;;;;;5001982;28;20532;-52
2023/10/20 01:56:45;;;;;;;15.40;12.33;;;;;;;;;;5003876;28;20220;-53
2023/10/20 01:59:12;;;;;;;13.60;10.70;;;;;;;;;;5001836;28;20325;-53
2023/10/20 02:01:38;;;;;;;14.57;11.03;;;;;;;;;;5001963;28;20212;-53
2023/10/20 02:04:05;;;;;;;14.97;11.00;;;;;;;;;;5001840;28;20281;-53
2023/10/20 02:06:31;;;;;;;15.00;11.77;;;;;;;;;;5008970;28;20201;-53
2023/10/20 02:08:58;;;;;;;15.30;11.60;;;;;;;;;;5021880;28;20284;-53
2023/10/20 02:11:24;;;;;;;22.90;12.00;;;;;;;;;;5019957;28;20225;-53
2023/10/20 02:13:50;;;;;;;14.67;11.37;;;;;;;;;;5019751;28;20643;-53
2023/10/20 02:16:17;;;;;;;15.37;11.33;;;;;;;;;;5021466;28;20236;-54
2023/10/20 02:18:44;;;;;;;14.43;11.20;;;;;;;;;;5019746;28;20266;-52
2023/10/20 02:21:11;;;;;;;13.83;10.90;;;;;;;;;;5021525;28;20287;-52
2023/10/20 02:23:40;;;;;;;13.70;11.20;;;;;;;;;;5019591;28;20201;-52
2023/10/20 02:26:07;;;;;;;14.57;10.60;;;;;;;;;;5019780;28;20207;-52
2023/10/20 02:28:33;;;;;;;14.10;10.13;;;;;;;;;;5019662;28;20284;-52
2023/10/20 02:31:00;;;;;;;12.20;10.23;;;;;;;;;;5021501;28;20216;-53
2023/10/20 02:33:27;;;;;;;12.87;10.77;;;;;;;;;;5021181;28;20197;-52
2023/10/20 02:35:57;;;;;;;12.03;10.17;;;;;;;;;;5021079;28;20227;-52
2023/10/20 02:38:23;;;;;;;13.03;9.97;;;;;;;;;;5020869;28;20200;-52
2023/10/20 02:40:49;;;;;;;12.37;10.03;;;;;;;;;;5019240;28;20233;-52
2023/10/20 02:43:16;;;;;;;12.43;9.30;;;;;;;;;;5019389;28;20237;-52
2023/10/20 02:45:47;;;;;;;9.80;8.50;;;;;;;;;;5019235;28;20283;-52
2023/10/20 02:48:13;;;;;;;12.00;9.23;;;;;;;;;;5021078;28;20204;-52
2023/10/20 02:50:40;;;;;;;12.43;9.33;;;;;;;;;;5019062;28;20197;-52
2023/10/20 02:53:07;;;;;;;10.40;9.13;;;;;;;;;;5019150;28;20288;-53
2023/10/20 02:55:33;;;;;;;13.23;9.17;;;;;;;;;;5019082;28;20225;-52
2023/10/20 02:57:59;;;;;;;9.97;8.40;;;;;;;;;;5019140;28;20235;-52
2023/10/20 03:00:26;;;;;;;10.27;8.57;;;;;;;;;;5020555;28;20635;-52
2023/10/20 03:02:53;;;;;;;12.17;9.07;;;;;;;;;;5018672;28;20605;-53
2023/10/20 03:05:20;;;;;;;9.97;8.27;;;;;;;;;;5018731;28;20209;-53
2023/10/20 03:07:48;;;;;;;11.03;8.53;;;;;;;;;;5018756;28;20721;-52
2023/10/20 03:10:14;;;;;;;11.20;7.87;;;;;;;;;;5018676;28;20619;-53
2023/10/20 03:12:40;;;;;;;9.33;7.37;;;;;;;;;;5018583;28;20197;-52
2023/10/20 03:15:10;;;;;;;13.20;7.70;;;;;;;;;;5020371;28;20200;-53
2023/10/20 03:17:36;;;;;;;10.27;7.97;;;;;;;;;;5018568;28;20193;-52
2023/10/20 03:20:08;;;;;;;8.47;7.03;;;;;;;;;;5020219;28;20636;-52
2023/10/20 03:22:34;;;;;;;8.47;7.27;;;;;;;;;;5018505;28;20209;-53
2023/10/20 03:25:02;;;;;;;10.53;7.20;;;;;;;;;;5018549;28;20247;-52
2023/10/20 03:27:29;;;;;;;7.33;6.50;;;;;;;;;;5018538;28;20219;-53
2023/10/20 03:29:55;;;;;;;8.10;6.00;;;;;;;;;;5018518;28;20200;-53
2023/10/20 03:32:21;;;;;;;7.63;6.77;;;;;;;;;;5018122;28;20224;-53
2023/10/20 03:34:47;;;;;;;9.47;6.97;;;;;;;;;;5018509;28;20197;-53
2023/10/20 03:37:14;;;;;;;7.77;6.97;;;;;;;;;;5018625;28;20254;-52
2023/10/20 03:39:41;;;;;;;8.00;7.13;;;;;;;;;;5018347;28;20306;-53
2023/10/20 03:42:11;;;;;;;8.23;6.60;;;;;;;;;;5017934;28;20268;-52
2023/10/20 03:44:37;;;;;;;7.77;6.17;;;;;;;;;;5018219;28;20284;-52
2023/10/20 03:47:05;;;;;;;9.63;7.17;;;;;;;;;;5018370;28;20200;-52
2023/10/20 03:49:34;;;;;;;8.60;6.83;;;;;;;;;;5018370;28;20231;-52
2023/10/20 03:52:00;;;;;;;8.33;6.40;;;;;;;;;;5018143;28;20196;-52
2023/10/20 03:54:26;;;;;;;9.07;6.83;;;;;;;;;;5017991;28;20243;-52
2023/10/20 03:56:52;;;;;;;10.73;6.83;;;;;;;;;;5017989;28;20200;-52
2023/10/20 03:59:19;;;;;;;9.63;6.87;;;;;;;;;;5018144;28;20229;-53
2023/10/20 04:01:45;;;;;;;8.57;6.60;;;;;;;;;;5018110;28;20193;-53
2023/10/20 04:04:11;;;;;;;8.30;6.57;;;;;;;;;;5023094;28;20232;-53
2023/10/20 04:06:38;;;;;;;8.00;6.67;;;;;;;;;;5026275;28;20234;-52
2023/10/20 04:09:09;;;;;;;9.67;6.93;;;;;;;;;;5022899;28;20613;-52
2023/10/20 04:11:35;;;;;;;7.37;6.63;;;;;;;;;;5024484;28;20205;-52
2023/10/20 04:14:01;;;;;;;11.17;7.40;;;;;;;;;;5024422;28;20663;-52
2023/10/20 04:16:31;;;;;;;8.47;6.93;;;;;;;;;;5024284;28;20238;-52
2023/10/20 04:18:58;;;;;;;9.40;6.80;;;;;;;;;;5024416;28;20219;-52
2023/10/20 04:21:26;;;;;;;9.97;7.33;;;;;;;;;;5024342;28;20519;-53
2023/10/20 04:23:52;;;;;;;10.63;7.27;;;;;;;;;;5022945;28;20599;-52
2023/10/20 04:26:21;;;;;;;8.83;6.53;;;;;;;;;;5026178;28;20663;-52
2023/10/20 04:28:48;;;;;;;9.37;7.00;;;;;;;;;;5024709;28;20251;-52
2023/10/20 04:50:48;;;;;;;9.70;6.63;;;;;;;;;;5037914;28;20217;-52
2023/10/20 04:53:23;;;;;;;8.30;6.70;;;;;;;;;;5037465;28;20208;-52
2023/10/20 04:56:23;;;;;;;8.60;7.17;;;;;;;;;;5037853;28;20200;-52
2023/10/20 04:59:09;;;;;;;8.57;6.83;;;;;;;;;;5037796;28;20204;-53
2023/10/20 05:01:48;;;;;;;9.20;6.90;;;;;;;;;;5037596;28;20209;-52
2023/10/20 05:04:36;;;;;;;9.20;7.13;;;;;;;;;;5037742;28;20222;-53
2023/10/20 05:07:08;;;;;;;9.80;7.27;;;;;;;;;;5037808;28;20270;-52
2023/10/20 05:09:40;;;;;;;7.87;6.60;;;;;;;;;;5037539;28;20216;-52
2023/10/20 05:12:06;;;;;;;9.60;7.33;;;;;;;;;;5037931;28;20205;-52
2023/10/20 05:14:32;;;;;;;10.40;8.13;;;;;;;;;;5035467;28;20197;-52
2023/10/20 05:16:58;;;;;;;10.27;7.50;;;;;;;;;;5034517;28;20199;-52
2023/10/20 05:19:31;;;;;;;10.47;7.03;;;;;;;;;;5034270;28;20733;-52
2023/10/20 05:21:57;;;;;;;8.53;7.00;;;;;;;;;;5034349;28;20197;-53
2023/10/20 05:24:24;;;;;;;8.93;7.03;;;;;;;;;;5034293;28;20200;-52
2023/10/20 05:26:50;;;;;;;10.63;7.23;;;;;;;;;;5034249;28;20205;-52
2023/10/20 05:29:17;;;;;;;9.37;7.20;;;;;;;;;;5034269;28;20534;-52
2023/10/20 05:31:43;;;;;;;9.53;7.50;;;;;;;;;;5034110;28;20267;-52
2023/10/20 05:34:11;;;;;;;10.23;8.30;;;;;;;;;;5034060;28;20201;-53
2023/10/20 05:36:37;;;;;;;9.93;7.03;;;;;;;;;;5034017;28;20582;-53
2023/10/20 05:39:03;;;;;;;7.90;6.43;;;;;;;;;;5034053;28;20258;-52
2023/10/20 05:41:30;;;;;;;8.67;7.33;;;;;;;;;;5033761;28;20300;-52
2023/10/20 05:43:56;;;;;;;10.13;8.23;;;;;;;;;;5033713;28;20189;-52
2023/10/20 05:46:22;;;;;;;10.50;7.80;;;;;;;;;;5033521;28;20215;-52
2023/10/20 05:48:48;;;;;;;7.73;6.93;;;;;;;;;;5033844;28;20655;-53
2023/10/20 05:51:14;;;;;;;10.73;8.27;;;;;;;;;;5034328;28;20208;-52
2023/10/20 05:53:40;;;;;;;10.13;7.83;;;;;;;;;;5033540;28;20287;-52
2023/10/20 05:56:06;;;;;;;10.50;7.47;;;;;;;;;;5033961;28;20200;-52
2023/10/20 05:58:34;;;;;;;9.10;7.17;;;;;;;;;;5033687;28;20219;-52
2023/10/20 06:01:04;;;;;;;10.17;7.73;;;;;;;;;;5033684;28;20233;-52
2023/10/20 06:03:30;;;;;;;9.00;7.23;;;;;;;;;;5033670;28;20886;-52
2023/10/20 06:05:58;;;;;;;10.20;6.57;;;;;;;;;;5033419;28;20570;-52
2023/10/20 06:08:24;;;;;;;9.17;7.53;;;;;;;;;;5033292;28;20201;-52
2023/10/20 06:10:50;;;;;;;10.20;7.43;;;;;;;;;;5033481;28;20672;-52
2023/10/20 06:13:16;;;;;;;10.03;8.07;;;;;;;;;;5033408;28;20298;-52
2023/10/20 06:15:44;;;;;;;7.50;6.67;;;;;;;;;;5033424;28;20209;-52
2023/10/20 06:18:10;;;;;;;9.43;7.23;;;;;;;;;;5033254;28;20209;-52
2023/10/20 06:20:38;;;;;;;8.43;6.63;;;;;;;;;;5033004;28;20236;-52
2023/10/20 06:23:04;;;;;;;8.60;6.87;;;;;;;;;;5033249;28;20197;-52
2023/10/20 06:25:31;;;;;;;6.63;5.80;;;;;;;;;;5032951;28;20282;-52
2023/10/20 06:27:57;;;;;;;8.53;6.23;;;;;;;;;;5033055;28;20201;-52
2023/10/20 06:30:23;;;;;;;7.37;5.97;;;;;;;;;;5033042;28;20196;-52
2023/10/20 06:33:16;;;;;;;7.77;6.07;;;;;;;;;;5033044;28;20216;-52
2023/10/20 06:35:51;;;;;;;5.50;4.93;;;;;;;;;;5032777;28;20712;-52
2023/10/20 06:38:19;;;;;;;7.70;6.00;;;;;;;;;;5033251;28;20208;-53
2023/10/20 06:40:47;;;;;;;6.70;5.47;;;;;;;;;;5032895;28;20283;-52
2023/10/20 06:43:13;;;;;;;9.63;5.20;;;;;;;;;;5032552;28;20585;-53
2023/10/20 06:45:39;;;;;;;7.67;5.80;;;;;;;;;;5031887;28;20201;-53
2023/10/20 06:48:07;;;;;;;6.10;5.50;;;;;;;;;;5032077;28;20200;-53
2023/10/20 06:50:33;;;;;;;7.23;5.00;;;;;;;;;;5032185;28;20193;-52
2023/10/20 06:52:59;;;;;;;6.60;4.63;;;;;;;;;;5032795;28;20774;-53
2023/10/20 06:55:25;;;;;;;7.80;5.00;;;;;;;;;;5032353;28;20201;-52
2023/10/20 06:57:51;;;;;;;7.27;5.17;;;;;;;;;;5032320;28;20207;-51
2023/10/20 07:00:18;;;;;;;7.87;5.00;;;;;;;;;;5032504;28;20264;-49
2023/10/20 07:02:44;;;;;;;5.53;4.40;;;;;;;;;;5032326;28;20208;-49
2023/10/20 07:05:11;;;;;;;5.27;4.03;;;;;;;;;;5032364;28;20193;-52
2023/10/20 07:07:37;;;;;;;5.13;4.43;;;;;;;;;;5032565;28;20215;-52
2023/10/20 07:10:03;;;;;;;5.23;3.70;;;;;;;;;;5032522;28;20189;-52
2023/10/20 07:12:29;;;;;;;7.27;4.00;;;;;;;;;;5032305;28;20205;-52
2023/10/20 07:14:55;;;;;;;4.93;3.97;;;;;;;;;;5032287;28;20279;-53
2023/10/20 07:17:22;;;;;;;4.17;3.23;;;;;;;;;;5032299;28;20782;-52
2023/10/20 07:19:48;;;;;;;5.43;3.60;;;;;;;;;;5018665;28;20725;-52
2023/10/20 07:22:15;;;;;;;4.00;3.20;;;;;;;;;;5018695;28;20193;-52
2023/10/20 07:24:42;;;;;;;4.50;3.47;;;;;;;;;;5018487;28;20235;-52
2023/10/20 07:27:08;;;;;;;4.03;3.43;;;;;;;;;;5018621;28;20201;-52
2023/10/20 07:29:35;;;;;;;3.63;3.10;;;;;;;;;;5018556;28;20201;-53
2023/10/20 07:32:01;;;;;;;4.07;2.97;;;;;;;;;;5018432;28;20216;-51
2023/10/20 07:34:27;;;;;;;4.33;3.17;;;;;;;;;;5018322;28;20196;-52
2023/10/20 07:36:53;;;;;;;3.50;2.70;;;;;;;;;;5018420;28;20559;-52
2023/10/20 07:39:20;;;;;;;4.47;2.83;;;;;;;;;;5018884;28;20213;-51
2023/10/20 07:41:47;;;;;;;2.70;2.40;;;;;;;;;;5018782;28;20236;-52
2023/10/20 07:44:15;;;;;;;3.30;3.00;;;;;;;;;;5018300;28;20276;-52
2023/10/20 07:46:42;;;;;;;3.77;2.80;;;;;;;;;;5018373;28;20559;-52
2023/10/20 07:49:08;;;;;;;3.03;2.73;;;;;;;;;;5018334;28;20310;-53
2023/10/20 07:51:35;;;;;;;3.53;2.57;;;;;;;;;;5018262;28;20184;-52
2023/10/20 07:54:01;;;;;;;3.80;2.70;;;;;;;;;;5018399;28;20663;-53
2023/10/20 07:56:28;;;;;;;2.67;2.47;;;;;;;;;;5018109;28;20247;-52
2023/10/20 07:58:54;;;;;;;2.77;2.37;;;;;;;;;;5018209;28;20285;-52
2023/10/20 08:01:20;;;;;;;3.10;2.43;;;;;;;;;;5016285;28;20271;-52
2023/10/20 08:03:47;;;;;;;2.90;2.33;;;;;;;;;;5018060;28;20609;-52
2023/10/20 08:06:13;;;;;;;2.67;2.20;;;;;;;;;;5018091;28;20713;-52
2023/10/20 08:08:40;;;;;;;2.50;2.30;;;;;;;;;;5017762;28;20212;-52
2023/10/20 08:11:09;;;;;;;3.37;2.67;;;;;;;;;;5018039;28;20193;-52
2023/10/20 08:13:37;;;;;;;2.67;2.43;;;;;;;;;;5019484;28;20868;-52
2023/10/20 08:16:04;;;;;;;2.30;2.10;;;;;;;;;;5018174;28;20208;-52
2023/10/20 08:18:33;;;;;;;2.53;2.20;;;;;;;;;;5018086;28;20568;-52
2023/10/20 08:21:02;;;;;;;2.63;2.43;;;;;;;;;;5018059;28;20224;-52
2023/10/20 08:23:28;;;;;;;2.30;2.10;;;;;;;;;;5019323;28;20200;-52
2023/10/20 08:25:54;;;;;;;2.47;2.07;;;;;;;;;;5016374;28;20250;-52
2023/10/20 08:28:20;;;;;;;2.57;1.90;;;;;;;;;;5018044;28;20194;-52
2023/10/20 08:30:49;;;;;;;3.23;2.10;;;;;;;;;;5017821;28;20259;-53
2023/10/20 08:33:15;;;;;;;2.50;2.30;;;;;;;;;;5017863;28;20204;-52
2023/10/20 08:35:41;;;;;;;3.93;1.90;;;;;;;;;;5017526;28;20204;-53
2023/10/20 08:38:07;;;;;;;8.33;7.40;;;;;;;;;;5017653;28;20224;-53
2023/10/20 08:40:33;;;;;;;6.07;5.53;;;;;;;;;;5017622;28;20265;-53
2023/10/20 08:43:02;;;;;;;1.90;1.80;;;;;;;;;;5017402;28;20652;-53
2023/10/20 08:45:31;;;;;;;7.43;6.73;;;;;;;;;;5017630;28;20594;-53
2023/10/20 08:47:59;;;;;;;4.47;3.73;;;;;;;;;;5017692;28;20248;-53
2023/10/20 08:50:29;;;;;;;1.63;1.53;;;;;;;;;;5020309;28;20244;-52
2023/10/20 08:52:57;;;;;;;3.43;3.17;;;;;;;;;;5021337;28;20193;-53
2023/10/20 08:55:23;;;;;;;2.63;2.40;;;;;;;;;;5021085;28;20391;-53
2023/10/20 08:57:49;;;;;;;1.97;1.77;;;;;;;;;;5021190;28;20231;-53
2023/10/20 09:00:22;;;;;;;1.83;1.57;;;;;;;;;;5021419;28;20257;-53
2023/10/20 09:02:48;;;;;;;2.23;2.00;;;;;;;;;;5021129;28;20201;-52
2023/10/20 09:05:24;;;;;;;8.17;6.53;;;;;;;;;;5021334;28;20279;-52
2023/10/20 09:07:51;;;;;;;3.63;3.33;;;;;;;;;;5021116;28;20250;-53
2023/10/20 09:10:17;;;;;;;3.10;2.80;;;;;;;;;;5021238;28;20207;-52
2023/10/20 09:12:43;;;;;;;13.00;10.30;;;;;;;;;;5020967;28;20295;-53
2023/10/20 09:15:11;;;;;;;4.73;3.87;;;;;;;;;;5021159;28;20247;-52
2023/10/20 09:17:37;;;;;;;15.40;10.70;;;;;;;;;;5020917;28;20201;-52
2023/10/20 09:20:07;;;;;;;28.90;21.13;;;;;;;;;;5020869;28;20236;-52
2023/10/20 09:22:34;;;;;;;115.53;52.90;;;;;;;;;;5020986;28;20207;-52
2023/10/20 09:25:00;;;;;;;50.60;27.97;;;;;;;;;;5022310;28;20205;-52
2023/10/20 09:27:26;;;;;;;51.60;30.83;;;;;;;;;;5021281;28;20204;-52
2023/10/20 09:29:53;;;;;;;32.77;20.03;;;;;;;;;;5019735;28;20287;-52
2023/10/20 09:32:19;;;;;;;64.40;35.80;;;;;;;;;;5020720;28;20248;-52
2023/10/20 09:34:45;;;;;;;16.30;11.27;;;;;;;;;;5022253;28;20205;-52
2023/10/20 09:37:12;;;;;;;9.77;8.20;;;;;;;;;;5020672;28;20377;-52
2023/10/20 09:39:43;;;;;;;15.77;12.43;;;;;;;;;;5022247;28;20316;-53
2023/10/20 09:42:10;;;;;;;8.10;6.20;;;;;;;;;;5022248;28;20237;-52
2023/10/20 09:44:41;;;;;;;2.13;1.93;;;;;;;;;;5020398;28;20761;-52
2023/10/20 09:47:11;;;;;;;9.67;8.67;;;;;;;;;;5020530;28;20201;-53
2023/10/20 09:49:39;;;;;;;1.90;1.80;;;;;;;;;;5020080;28;20647;-52
2023/10/20 09:52:05;;;;;;;3.30;3.00;;;;;;;;;;5020320;28;20205;-52
2023/10/20 09:54:31;;;;;;;2.77;2.10;;;;;;;;;;5020351;28;20655;-52
2023/10/20 09:57:00;;;;;;;16.43;12.63;;;;;;;;;;5020352;28;20356;-52
2023/10/20 09:59:27;;;;;;;9.30;6.07;;;;;;;;;;5021758;28;20288;-52
2023/10/20 10:01:54;;;;;;;31.03;18.03;;;;;;;;;;5017739;28;20201;-52
2023/10/20 10:04:24;;;;;;;1.50;1.30;;;;;;;;;;5019902;28;20228;-52
2023/10/20 10:06:50;;;;;;;228.10;152.73;;;;;;;;;;5020023;28;20197;-52
2023/10/20 10:09:16;;;;;;;5.70;4.50;;;;;;;;;;5020225;28;20200;-52
2023/10/20 10:11:43;;;;;;;2.60;2.13;;;;;;;;;;5018134;28;20205;-52
2023/10/20 10:14:19;;;;;;;2.20;2.00;;;;;;;;;;5020011;28;20188;-52
2023/10/20 10:16:53;;;;;;;9.63;6.13;;;;;;;;;;5019850;28;20715;-52
2023/10/20 10:19:19;;;;;;;5.00;3.40;;;;;;;;;;5019863;28;20197;-52
2023/10/20 10:21:49;;;;;;;3.47;3.13;;;;;;;;;;5019804;28;20201;-53
2023/10/20 10:24:17;;;;;;;2.57;2.37;;;;;;;;;;5019870;28;20203;-52
2023/10/20 10:26:50;;;;;;;11.13;9.23;;;;;;;;;;5019574;28;20225;-53
2023/10/20 10:29:18;;;;;;;3.67;2.67;;;;;;;;;;5019792;28;20205;-52
2023/10/20 10:31:44;;;;;;;1.80;1.70;;;;;;;;;;5019414;28;20221;-52
2023/10/20 10:34:10;;;;;;;2.93;2.63;;;;;;;;;;5021375;28;20216;-52
2023/10/20 10:36:43;;;;;;;4.13;3.70;;;;;;;;;;5019504;28;20193;-52
2023/10/20 10:39:19;;;;;;;1.97;1.87;;;;;;;;;;5020694;28;20201;-52
2023/10/20 10:41:46;;;;;;;2.50;2.30;;;;;;;;;;5019559;28;20228;-52
2023/10/20 10:44:12;;;;;;;2.13;1.93;;;;;;;;;;5019537;28;20208;-52
2023/10/20 10:46:39;;;;;;;27.87;20.43;;;;;;;;;;5019320;28;20207;-52
2023/10/20 10:49:06;;;;;;;11.67;8.27;;;;;;;;;;5019048;28;20564;-52
2023/10/20 10:51:32;;;;;;;7.10;5.20;;;;;;;;;;5019271;28;20200;-52
2023/10/20 10:53:58;;;;;;;2.77;2.57;;;;;;;;;;5019145;28;20193;-52
2023/10/20 10:56:24;;;;;;;1.63;1.53;;;;;;;;;;5019264;28;20224;-52
2023/10/20 10:58:50;;;;;;;1.47;1.37;;;;;;;;;;5019065;28;20255;-52
2023/10/20 11:01:16;;;;;;;5.13;4.70;;;;;;;;;;5019245;28;20232;-53
2023/10/20 11:03:44;;;;;;;1.80;1.70;;;;;;;;;;5019019;28;20670;-57
2023/10/20 11:06:10;;;;;;;1.40;1.30;;;;;;;;;;5029367;28;20215;-54
2023/10/20 11:08:36;;;;;;;1.23;1.13;;;;;;;;;;5032584;28;20201;-54
2023/10/20 11:11:02;;;;;;;1.80;1.70;;;;;;;;;;5032776;28;20565;-54
2023/10/20 11:13:28;;;;;;;2.20;1.97;;;;;;;;;;5031620;28;20197;-53
2023/10/20 11:15:54;;;;;;;2.27;2.10;;;;;;;;;;5032377;28;20193;-54
2023/10/20 11:18:20;;;;;;;1.40;1.30;;;;;;;;;;5026580;28;20205;-53
2023/10/20 11:20:49;;;;;;;1.87;1.50;;;;;;;;;;5012802;28;20256;-54
2023/10/20 11:23:19;;;;;;;1.77;1.43;;;;;;;;;;5012629;28;20746;-54
2023/10/20 11:25:47;;;;;;;1.30;1.20;;;;;;;;;;5012619;28;20201;-54
2023/10/20 11:28:13;;;;;;;1.90;1.70;;;;;;;;;;5012648;28;20198;-54
2023/10/20 11:30:41;;;;;;;2.80;2.50;;;;;;;;;;5012290;28;20561;-53
2023/10/20 11:33:10;;;;;;;7.93;7.10;;;;;;;;;;5012569;28;20201;-54
2023/10/20 11:35:36;;;;;;;3.30;1.90;;;;;;;;;;5012466;28;20211;-53
2023/10/20 11:38:05;;;;;;;8.80;8.07;;;;;;;;;;5012509;28;20229;-54
2023/10/20 11:40:31;;;;;;;1.73;1.63;;;;;;;;;;5012436;28;20236;-53
2023/10/20 11:42:57;;;;;;;1.90;1.80;;;;;;;;;;5012216;28;20245;-54
2023/10/20 11:45:24;;;;;;;2.23;2.03;;;;;;;;;;5012329;28;20217;-53
2023/10/20 11:47:51;;;;;;;1.80;1.70;;;;;;;;;;5006605;28;20206;-51
2023/10/20 11:50:19;;;;;;;1.73;1.63;;;;;;;;;;5011945;28;20218;-50
2023/10/20 11:52:45;;;;;;;2.43;2.23;;;;;;;;;;5012119;28;20202;-51
2023/10/20 11:55:12;;;;;;;2.40;2.20;;;;;;;;;;5011990;28;20208;-48
2023/10/20 11:57:39;;;;;;;2.40;2.20;;;;;;;;;;5011674;28;20198;-51
2023/10/20 12:00:09;;;;;;;1.83;1.50;;;;;;;;;;5011838;28;20229;-52
2023/10/20 12:02:35;;;;;;;3.00;2.70;;;;;;;;;;5012156;28;20679;-51
2023/10/20 12:05:01;;;;;;;2.37;2.17;;;;;;;;;;5011760;28;20213;-51
2023/10/20 12:07:27;;;;;;;1.40;1.30;;;;;;;;;;5012060;28;20636;-52
2023/10/20 12:09:53;;;;;;;1.40;1.30;;;;;;;;;;5011581;28;20297;-51
2023/10/20 12:12:20;;;;;;;1.53;1.43;;;;;;;;;;5012079;28;20212;-51
2023/10/20 12:14:47;;;;;;;3.03;2.77;;;;;;;;;;5011883;28;20217;-51
2023/10/20 12:17:13;;;;;;;1.50;1.40;;;;;;;;;;5011644;28;20209;-51
2023/10/20 12:19:39;;;;;;;1.30;1.20;;;;;;;;;;5011797;28;20201;-51
2023/10/20 12:22:05;;;;;;;3.70;3.03;;;;;;;;;;5011438;28;20198;-51
2023/10/20 12:24:31;;;;;;;1.90;1.80;;;;;;;;;;5013337;28;20240;-51
2023/10/20 12:26:58;;;;;;;1.67;1.40;;;;;;;;;;5015472;28;20201;-51
2023/10/20 12:29:25;;;;;;;5.67;5.17;;;;;;;;;;5015514;28;20190;-51
2023/10/20 12:31:51;;;;;;;12.20;10.90;;;;;;;;;;5015410;28;20221;-50
2023/10/20 12:34:20;;;;;;;2.77;2.53;;;;;;;;;;5015266;28;20201;-51
2023/10/20 12:36:48;;;;;;;4.83;4.33;;;;;;;;;;5015620;28;20646;-50
2023/10/20 12:39:20;;;;;;;2.37;2.13;;;;;;;;;;5015434;28;20197;-51
2023/10/20 12:41:46;;;;;;;2.33;1.60;;;;;;;;;;5015083;28;20237;-51
2023/10/20 12:44:13;;;;;;;1.63;1.53;;;;;;;;;;5015576;28;20193;-51
2023/10/20 12:46:41;;;;;;;1.60;1.47;;;;;;;;;;5014859;28;20706;-51
2023/10/20 12:49:07;;;;;;;3.33;2.80;;;;;;;;;;5014789;28;20765;-51
2023/10/20 12:51:33;;;;;;;10.33;8.20;;;;;;;;;;5014912;28;20244;-51
2023/10/20 12:53:59;;;;;;;2.10;1.90;;;;;;;;;;5015098;28;20193;-52
2023/10/20 12:56:26;;;;;;;1.83;1.73;;;;;;;;;;5020543;28;20204;-51
2023/10/20 12:58:53;;;;;;;2.33;1.93;;;;;;;;;;5034196;28;20662;-51
2023/10/20 13:01:19;;;;;;;1.20;1.20;;;;;;;;;;5023455;28;20221;-51
2023/10/20 13:03:48;;;;;;;1.83;1.63;;;;;;;;;;5014981;28;20212;-51
2023/10/20 13:06:14;;;;;;;1.07;1.07;;;;;;;;;;5014729;28;20216;-51
2023/10/20 13:08:42;;;;;;;1.40;1.30;;;;;;;;;;5014920;28;20198;-51
2023/10/20 13:11:10;;;;;;;2.63;1.23;;;;;;;;;;5014268;28;20209;-52
2023/10/20 13:13:36;;;;;;;1.20;1.00;;;;;;;;;;5012856;28;20248;-51
2023/10/20 13:16:06;;;;;;;1.10;1.10;;;;;;;;;;5013050;28;20682;-51
2023/10/20 13:18:32;;;;;;;1.83;1.30;;;;;;;;;;5014904;28;20639;-50
2023/10/20 13:21:02;;;;;;;1.10;1.10;;;;;;;;;;5014569;28;20309;-51
2023/10/20 13:23:28;;;;;;;26.20;21.13;;;;;;;;;;5014783;28;20791;-51
2023/10/20 13:25:58;;;;;;;1.53;1.43;;;;;;;;;;5014729;28;20202;-51
2023/10/20 13:28:24;;;;;;;1.77;1.63;;;;;;;;;;5014857;28;20193;-51
2023/10/20 13:30:59;;;;;;;3.63;3.00;;;;;;;;;;5014529;28;20770;-51
2023/10/20 13:33:25;;;;;;;30.17;21.67;;;;;;;;;;5014750;28;20208;-52
2023/10/20 13:35:51;;;;;;;2.37;2.10;;;;;;;;;;5013419;28;20201;-51
2023/10/20 13:38:18;;;;;;;16.30;12.53;;;;;;;;;;5014650;28;20259;-51
2023/10/20 13:40:44;;;;;;;1.60;1.50;;;;;;;;;;5014378;28;20229;-52
2023/10/20 13:43:10;;;;;;;1.80;1.70;;;;;;;;;;5014299;28;20645;-51
2023/10/20 13:45:37;;;;;;;2.37;2.17;;;;;;;;;;5014127;28;20198;-52
2023/10/20 13:48:04;;;;;;;2.00;1.80;;;;;;;;;;5014060;28;20198;-51
2023/10/20 13:50:29;;;;;;;4.87;4.40;;;;;;;;;;5014175;28;20240;-51
2023/10/20 13:52:55;;;;;;;2.50;2.30;;;;;;;;;;5013984;28;20202;-51
2023/10/20 13:55:23;;;;;;;3.90;3.53;;;;;;;;;;5013977;28;20612;-51
2023/10/20 13:57:49;;;;;;;3.10;2.80;;;;;;;;;;5014067;28;20209;-51
2023/10/20 14:00:16;;;;;;;1.73;1.63;;;;;;;;;;5013915;28;20291;-49
2023/10/20 14:02:42;;;;;;;1.50;1.40;;;;;;;;;;5014235;28;20313;-52
2023/10/20 14:05:08;;;;;;;1.50;1.40;;;;;;;;;;5014023;28;20205;-51
2023/10/20 14:07:34;;;;;;;2.83;1.50;;;;;;;;;;5014049;28;20189;-51
2023/10/20 14:10:00;;;;;;;1.40;1.30;;;;;;;;;;5014064;28;20229;-51
2023/10/20 14:12:27;;;;;;;1.30;1.30;;;;;;;;;;5014013;28;20204;-51
2023/10/20 14:14:55;;;;;;;1.40;1.30;;;;;;;;;;5013772;28;20675;-51
2023/10/20 14:17:21;;;;;;;1.43;1.33;;;;;;;;;;5013731;28;20633;-51
2023/10/20 14:19:47;;;;;;;1.43;1.30;;;;;;;;;;5013821;28;20224;-51
2023/10/20 14:22:13;;;;;;;1.97;1.57;;;;;;;;;;5013930;28;20208;-52
2023/10/20 14:24:39;;;;;;;1.57;1.47;;;;;;;;;;5013706;28;20706;-51
2023/10/20 14:27:05;;;;;;;1.83;1.70;;;;;;;;;;5013704;28;20194;-51
2023/10/20 14:29:32;;;;;;;1.53;1.43;;;;;;;;;;5013724;28;20209;-51
2023/10/20 14:31:58;;;;;;;1.50;1.40;;;;;;;;;;5013488;28;20228;-51
2023/10/20 14:34:24;;;;;;;1.53;1.30;;;;;;;;;;5013548;28;20217;-51
2023/10/20 14:36:50;;;;;;;1.30;1.20;;;;;;;;;;5013716;28;20201;-51
2023/10/20 14:39:17;;;;;;;1.53;1.40;;;;;;;;;;5013259;28;20194;-51
2023/10/20 14:41:43;;;;;;;64.90;31.83;;;;;;;;;;5013207;28;20305;-51
2023/10/20 14:44:09;;;;;;;15.70;10.43;;;;;;;;;;5013309;28;20252;-52
2023/10/20 14:46:37;;;;;;;5.57;3.87;;;;;;;;;;5013197;28;20574;-51
2023/10/20 14:49:03;;;;;;;1.20;1.20;;;;;;;;;;5013109;28;20759;-51
2023/10/20 14:51:29;;;;;;;142.07;78.27;;;;;;;;;;5013129;28;20256;-51
2023/10/20 14:53:55;;;;;;;1.60;1.50;;;;;;;;;;5013118;28;20202;-51
2023/10/20 14:56:22;;;;;;;7.73;5.40;;;;;;;;;;5013297;28;20214;-51